KRDR/RDR METAR and TAF weather

Enter ICAO airport designator
Station Type Date Time Source
KRDR METAR 2019/12/08 19:16 UTC NOAA

KRDR 081916Z 02017KT 10SM BKN007 BKN011 OVC060 M15/M19 A2996 RMK AO2A SLP168


Station Type Date Time Source
KRDR Decoded METAR 2019/12/08 19:16 UTC NOAA

Grand Forks Air Force Base, ND, United States (KRDR) 47-58N 097-24W 278M
Dec 08, 2019 - 02:16 PM EST / 2019.12.08 1916 UTC
Wind: from the NNE (020 degrees) at 20 MPH (17 KT):0
Visibility: 10 mile(s):0
Sky conditions: overcast
Temperature: 5 F (-15 C)
Windchill: -14 F (-26 C):2
Dew Point: -2 F (-19 C)
Relative Humidity: 71%
Pressure (altimeter): 29.96 in. Hg (1014 hPa)
ob: KRDR 081916Z 02017KT 10SM BKN007 BKN011 OVC060 M15/M19 A2996 RMK AO2A SLP168
cycle: 19

Station Type Date Time Source
KRDR TAF 2019/12/08 18:59 UTC NOAA

TAF
AMD KRDR 081855Z 0818/0924 36015G25KT 8000 BLSN BKN007 QNH2997INS
BECMG 0823/0824 01015G25KT 6000 -SN BLSN BKN008 OVC020 620209 QNH3000INS
BECMG 0902/0903 36012G20KT 1600 -SN BLSN BKN008 OVC015 620089 QNH3002INS
BECMG 0908/0909 34012KT 4800 -SN OVC015 620159 QNH3001INS
BECMG 0913/0914 VRB06KT 9999 NSW SCT100 QNH2992INS
BECMG 0921/0922 VRB06KT 9999 BKN100 QNH2988INS TXM13/0819Z TNM19/0914Z

Example: see airport list